sensor_id;sensor_type;location;lat;lon;timestamp;pressure;altitude;pressure_sealevel;temperature;humidity
23241;BME280;11789;53.482;9.862;2022-10-14T00:01:00;101535.09;;;11.65;100.00
23241;BME280;11789;53.482;9.862;2022-10-14T00:03:25;101538.56;;;11.66;100.00
23241;BME280;11789;53.482;9.862;2022-10-14T00:05:50;101529.91;;;11.65;100.00
23241;BME280;11789;53.482;9.862;2022-10-14T00:08:16;101523.84;;;11.65;100.00
23241;BME280;11789;53.482;9.862;2022-10-14T00:10:41;101529.91;;;11.65;100.00
23241;BME280;11789;53.482;9.862;2022-10-14T00:13:07;101527.31;;;11.65;100.00
23241;BME280;11789;53.482;9.862;2022-10-14T00:15:37;101529.91;;;11.65;100.00
23241;BME280;11789;53.482;9.862;2022-10-14T00:18:04;101535.09;;;11.64;100.00
23241;BME280;11789;53.482;9.862;2022-10-14T00:20:29;101538.53;;;11.64;100.00
23241;BME280;11789;53.482;9.862;2022-10-14T00:22:55;101537.69;;;11.65;100.00
23241;BME280;11789;53.482;9.862;2022-10-14T00:25:20;101537.69;;;11.65;100.00
23241;BME280;11789;53.482;9.862;2022-10-14T00:27:45;101537.69;;;11.65;100.00
23241;BME280;11789;53.482;9.862;2022-10-14T00:30:11;101534.22;;;11.65;100.00
23241;BME280;11789;53.482;9.862;2022-10-14T00:32:36;101533.34;;;11.64;100.00
23241;BME280;11789;53.482;9.862;2022-10-14T00:35:02;101535.94;;;11.64;100.00
23241;BME280;11789;53.482;9.862;2022-10-14T00:37:33;101534.22;;;11.65;100.00
23241;BME280;11789;53.482;9.862;2022-10-14T00:39:59;101528.19;;;11.64;100.00
23241;BME280;11789;53.482;9.862;2022-10-14T00:42:24;101527.31;;;11.64;100.00
23241;BME280;11789;53.482;9.862;2022-10-14T00:47:15;101538.53;;;11.64;100.00
23241;BME280;11789;53.482;9.862;2022-10-14T00:49:42;101529.03;;;11.63;100.00
23241;BME280;11789;53.482;9.862;2022-10-14T00:52:12;101530.78;;;11.63;100.00
23241;BME280;11789;53.482;9.862;2022-10-14T00:54:42;101527.31;;;11.62;100.00
23241;BME280;11789;53.482;9.862;2022-10-14T00:57:10;101521.28;;;11.63;100.00
23241;BME280;11789;53.482;9.862;2022-10-14T00:59:36;101525.59;;;11.63;100.00
23241;BME280;11789;53.482;9.862;2022-10-14T01:02:03;101532.50;;;11.62;100.00
23241;BME280;11789;53.482;9.862;2022-10-14T01:04:28;101529.03;;;11.63;100.00
23241;BME280;11789;53.482;9.862;2022-10-14T01:07:07;101524.72;;;11.62;100.00
23241;BME280;11789;53.482;9.862;2022-10-14T01:09:45;101519.53;;;11.62;100.00
23241;BME280;11789;53.482;9.862;2022-10-14T01:12:27;101526.44;;;11.63;100.00
23241;BME280;11789;53.482;9.862;2022-10-14T01:15:19;101530.78;;;11.63;100.00
23241;BME280;11789;53.482;9.862;2022-10-14T01:23:19;101520.41;;;11.61;100.00
23241;BME280;11789;53.482;9.862;2022-10-14T01:26:24;101519.56;;;11.61;100.00
23241;BME280;11789;53.482;9.862;2022-10-14T01:32:05;101511.75;;;11.59;100.00
23241;BME280;11789;53.482;9.862;2022-10-14T01:34:41;101508.28;;;11.60;100.00
23241;BME280;11789;53.482;9.862;2022-10-14T01:37:18;101517.81;;;11.61;100.00
23241;BME280;11789;53.482;9.862;2022-10-14T01:39:55;101508.31;;;11.62;100.00
23241;BME280;11789;53.482;9.862;2022-10-14T01:42:31;101507.47;;;11.61;100.00
23241;BME280;11789;53.482;9.862;2022-10-14T01:45:13;101507.47;;;11.61;100.00
23241;BME280;11789;53.482;9.862;2022-10-14T01:47:41;101502.28;;;11.61;100.00
23241;BME280;11789;53.482;9.862;2022-10-14T01:50:11;101509.19;;;11.62;100.00
23241;BME280;11789;53.482;9.862;2022-10-14T01:52:44;101503.16;;;11.62;100.00
23241;BME280;11789;53.482;9.862;2022-10-14T01:55:16;101496.25;;;11.62;100.00
23241;BME280;11789;53.482;9.862;2022-10-14T01:57:44;101489.34;;;11.61;100.00
23241;BME280;11789;53.482;9.862;2022-10-14T02:00:11;101488.47;;;11.62;100.00
23241;BME280;11789;53.482;9.862;2022-10-14T02:02:37;101483.28;;;11.62;100.00
23241;BME280;11789;53.482;9.862;2022-10-14T02:05:07;101488.47;;;11.62;100.00
23241;BME280;11789;53.482;9.862;2022-10-14T02:07:44;101489.34;;;11.61;100.00
23241;BME280;11789;53.482;9.862;2022-10-14T02:10:23;101494.50;;;11.61;100.00
23241;BME280;11789;53.482;9.862;2022-10-14T02:15:30;101490.16;;;11.60;100.00
23241;BME280;11789;53.482;9.862;2022-10-14T02:21:09;101495.34;;;11.60;100.00
23241;BME280;11789;53.482;9.862;2022-10-14T02:23:55;101492.75;;;11.59;100.00
23241;BME280;11789;53.482;9.862;2022-10-14T02:26:23;101491.03;;;11.58;100.00
23241;BME280;11789;53.482;9.862;2022-10-14T02:28:52;101496.22;;;11.58;100.00
23241;BME280;11789;53.482;9.862;2022-10-14T02:31:19;101489.31;;;11.58;100.00
23241;BME280;11789;53.482;9.862;2022-10-14T02:33:50;101493.63;;;11.58;100.00
23241;BME280;11789;53.482;9.862;2022-10-14T02:36:19;101491.91;;;11.58;100.00
23241;BME280;11789;53.482;9.862;2022-10-14T02:38:46;101492.75;;;11.59;100.00
23241;BME280;11789;53.482;9.862;2022-10-14T02:41:18;101492.75;;;11.59;100.00
23241;BME280;11789;53.482;9.862;2022-10-14T02:43:45;101486.72;;;11.58;100.00
23241;BME280;11789;53.482;9.862;2022-10-14T02:46:10;101486.72;;;11.58;100.00
23241;BME280;11789;53.482;9.862;2022-10-14T02:48:36;101486.72;;;11.58;100.00
23241;BME280;11789;53.482;9.862;2022-10-14T02:51:02;101485.84;;;11.58;100.00
23241;BME280;11789;53.482;9.862;2022-10-14T02:53:27;101481.53;;;11.57;100.00
23241;BME280;11789;53.482;9.862;2022-10-14T02:55:52;101487.59;;;11.57;100.00
23241;BME280;11789;53.482;9.862;2022-10-14T02:58:18;101484.13;;;11.57;100.00
23241;BME280;11789;53.482;9.862;2022-10-14T03:00:44;101486.72;;;11.57;100.00
23241;BME280;11789;53.482;9.862;2022-10-14T03:03:09;101485.84;;;11.58;100.00
23241;BME280;11789;53.482;9.862;2022-10-14T03:05:34;101479.81;;;11.57;100.00
23241;BME280;11789;53.482;9.862;2022-10-14T03:08:00;101474.63;;;11.59;100.00
23241;BME280;11789;53.482;9.862;2022-10-14T03:10:25;101469.44;;;11.59;100.00
23241;BME280;11789;53.482;9.862;2022-10-14T03:12:51;101471.19;;;11.58;100.00
23241;BME280;11789;53.482;9.862;2022-10-14T03:15:16;101478.09;;;11.59;100.00
23241;BME280;11789;53.482;9.862;2022-10-14T03:17:42;101472.91;;;11.58;100.00
23241;BME280;11789;53.482;9.862;2022-10-14T03:20:07;101468.56;;;11.55;100.00
23241;BME280;11789;53.482;9.862;2022-10-14T03:22:33;101471.16;;;11.55;100.00
23241;BME280;11789;53.482;9.862;2022-10-14T03:24:59;101465.97;;;11.55;100.00
23241;BME280;11789;53.482;9.862;2022-10-14T03:27:24;101472.03;;;11.56;100.00
23241;BME280;11789;53.482;9.862;2022-10-14T03:29:50;101472.91;;;11.56;100.00
23241;BME280;11789;53.482;9.862;2022-10-14T03:32:15;101475.50;;;11.56;100.00
23241;BME280;11789;53.482;9.862;2022-10-14T03:34:41;101478.09;;;11.56;100.00
23241;BME280;11789;53.482;9.862;2022-10-14T03:37:06;101471.19;;;11.57;100.00
23241;BME280;11789;53.482;9.862;2022-10-14T03:39:32;101470.31;;;11.56;100.00
23241;BME280;11789;53.482;9.862;2022-10-14T03:41:58;101471.16;;;11.55;100.00
23241;BME280;11789;53.482;9.862;2022-10-14T03:44:24;101472.88;;;11.55;100.00
23241;BME280;11789;53.482;9.862;2022-10-14T03:46:50;101466.84;;;11.54;100.00
23241;BME280;11789;53.482;9.862;2022-10-14T03:49:18;101470.31;;;11.56;100.00
23241;BME280;11789;53.482;9.862;2022-10-14T03:51:44;101462.53;;;11.55;100.00
23241;BME280;11789;53.482;9.862;2022-10-14T03:54:09;101465.09;;;11.55;100.00
23241;BME280;11789;53.482;9.862;2022-10-14T03:56:35;101458.19;;;11.55;100.00
23241;BME280;11789;53.482;9.862;2022-10-14T03:59:00;101463.38;;;11.55;100.00
23241;BME280;11789;53.482;9.862;2022-10-14T04:01:25;101458.22;;;11.57;100.00
23241;BME280;11789;53.482;9.862;2022-10-14T04:03:51;101461.69;;;11.56;100.00
23241;BME280;11789;53.482;9.862;2022-10-14T04:06:16;101457.37;;;11.56;100.00
23241;BME280;11789;53.482;9.862;2022-10-14T04:08:42;101464.28;;;11.56;100.00
23241;BME280;11789;53.482;9.862;2022-10-14T04:11:08;101465.13;;;11.56;100.00
23241;BME280;11789;53.482;9.862;2022-10-14T04:13:34;101468.59;;;11.58;100.00
23241;BME280;11789;53.482;9.862;2022-10-14T04:16:05;101460.81;;;11.58;100.00
23241;BME280;11789;53.482;9.862;2022-10-14T04:18:31;101464.28;;;11.57;100.00
23241;BME280;11789;53.482;9.862;2022-10-14T04:21:01;101460.81;;;11.58;100.00
23241;BME280;11789;53.482;9.862;2022-10-14T04:23:27;101459.09;;;11.59;100.00
23241;BME280;11789;53.482;9.862;2022-10-14T04:25:52;101449.59;;;11.58;100.00
23241;BME280;11789;53.482;9.862;2022-10-14T04:28:18;101453.06;;;11.58;100.00
23241;BME280;11789;53.482;9.862;2022-10-14T04:30:43;101447.88;;;11.58;100.00
23241;BME280;11789;53.482;9.862;2022-10-14T04:33:09;101440.09;;;11.58;100.00
23241;BME280;11789;53.482;9.862;2022-10-14T04:35:34;101440.97;;;11.57;100.00
23241;BME280;11789;53.482;9.862;2022-10-14T04:37:59;101437.50;;;11.57;100.00
23241;BME280;11789;53.482;9.862;2022-10-14T04:40:25;101436.66;;;11.56;100.00
23241;BME280;11789;53.482;9.862;2022-10-14T04:42:57;101438.38;;;11.56;100.00
23241;BME280;11789;53.482;9.862;2022-10-14T04:45:24;101432.34;;;11.57;100.00
23241;BME280;11789;53.482;9.862;2022-10-14T04:47:50;101436.66;;;11.56;100.00
23241;BME280;11789;53.482;9.862;2022-10-14T04:50:16;101436.66;;;11.56;100.00
23241;BME280;11789;53.482;9.862;2022-10-14T04:52:43;101440.97;;;11.56;100.00
23241;BME280;11789;53.482;9.862;2022-10-14T04:55:08;101435.78;;;11.56;100.00
23241;BME280;11789;53.482;9.862;2022-10-14T04:57:34;101431.47;;;11.56;100.00
23241;BME280;11789;53.482;9.862;2022-10-14T05:00:00;101433.19;;;11.56;100.00
23241;BME280;11789;53.482;9.862;2022-10-14T05:02:26;101429.72;;;11.55;100.00
23241;BME280;11789;53.482;9.862;2022-10-14T05:04:51;101432.31;;;11.55;100.00
23241;BME280;11789;53.482;9.862;2022-10-14T05:07:17;101434.03;;;11.55;100.00
23241;BME280;11789;53.482;9.862;2022-10-14T05:09:42;101437.47;;;11.55;100.00
23241;BME280;11789;53.482;9.862;2022-10-14T05:12:07;101429.72;;;11.55;100.00
23241;BME280;11789;53.482;9.862;2022-10-14T05:14:33;101429.72;;;11.54;100.00
23241;BME280;11789;53.482;9.862;2022-10-14T05:16:59;101431.44;;;11.53;100.00
23241;BME280;11789;53.482;9.862;2022-10-14T05:19:25;101434.91;;;11.54;100.00
23241;BME280;11789;53.482;9.862;2022-10-14T05:21:50;101423.69;;;11.52;100.00
23241;BME280;11789;53.482;9.862;2022-10-14T05:24:17;101425.41;;;11.53;100.00
23241;BME280;11789;53.482;9.862;2022-10-14T05:26:42;101425.41;;;11.53;100.00
23241;BME280;11789;53.482;9.862;2022-10-14T05:29:09;101426.28;;;11.53;100.00
23241;BME280;11789;53.482;9.862;2022-10-14T05:31:36;101431.44;;;11.53;100.00
23241;BME280;11789;53.482;9.862;2022-10-14T05:34:01;101434.03;;;11.53;100.00
23241;BME280;11789;53.482;9.862;2022-10-14T05:36:27;101427.13;;;11.54;100.00
23241;BME280;11789;53.482;9.862;2022-10-14T05:38:53;101434.03;;;11.53;100.00
23241;BME280;11789;53.482;9.862;2022-10-14T05:41:25;101438.34;;;11.54;100.00
23241;BME280;11789;53.482;9.862;2022-10-14T05:43:51;101430.59;;;11.53;100.00
23241;BME280;11789;53.482;9.862;2022-10-14T05:46:16;101432.31;;;11.54;100.00
23241;BME280;11789;53.482;9.862;2022-10-14T05:48:42;101434.91;;;11.54;100.00
23241;BME280;11789;53.482;9.862;2022-10-14T05:51:07;101434.03;;;11.55;100.00
23241;BME280;11789;53.482;9.862;2022-10-14T05:53:34;101432.31;;;11.54;100.00
23241;BME280;11789;53.482;9.862;2022-10-14T05:56:04;101426.28;;;11.53;100.00
23241;BME280;11789;53.482;9.862;2022-10-14T05:58:31;101431.44;;;11.53;100.00
23241;BME280;11789;53.482;9.862;2022-10-14T06:01:05;101428.84;;;11.53;100.00
23241;BME280;11789;53.482;9.862;2022-10-14T06:03:31;101428.84;;;11.53;100.00
23241;BME280;11789;53.482;9.862;2022-10-14T06:05:57;101429.72;;;11.54;100.00
23241;BME280;11789;53.482;9.862;2022-10-14T06:08:23;101429.72;;;11.54;100.00
23241;BME280;11789;53.482;9.862;2022-10-14T06:10:49;101421.09;;;11.53;100.00
23241;BME280;11789;53.482;9.862;2022-10-14T06:13:15;101425.41;;;11.53;100.00
23241;BME280;11789;53.482;9.862;2022-10-14T06:15:41;101416.78;;;11.52;100.00
23241;BME280;11789;53.482;9.862;2022-10-14T06:18:06;101421.94;;;11.54;100.00
23241;BME280;11789;53.482;9.862;2022-10-14T06:20:32;101420.22;;;11.54;100.00
23241;BME280;11789;53.482;9.862;2022-10-14T06:22:59;101418.53;;;11.56;100.00
23241;BME280;11789;53.482;9.862;2022-10-14T06:25:25;101415.06;;;11.56;100.00
23241;BME280;11789;53.482;9.862;2022-10-14T06:27:50;101420.25;;;11.57;100.00
23241;BME280;11789;53.482;9.862;2022-10-14T06:30:16;101420.25;;;11.57;100.00
23241;BME280;11789;53.482;9.862;2022-10-14T06:32:42;101415.06;;;11.57;100.00
23241;BME280;11789;53.482;9.862;2022-10-14T06:35:11;101423.69;;;11.58;100.00
23241;BME280;11789;53.482;9.862;2022-10-14T06:37:37;101418.53;;;11.58;100.00
23241;BME280;11789;53.482;9.862;2022-10-14T06:40:03;101413.34;;;11.59;100.00
23241;BME280;11789;53.482;9.862;2022-10-14T06:42:29;101407.28;;;11.60;100.00
23241;BME280;11789;53.482;9.862;2022-10-14T06:44:55;101415.94;;;11.62;100.00
23241;BME280;11789;53.482;9.862;2022-10-14T06:47:20;101412.53;;;11.66;100.00
23241;BME280;11789;53.482;9.862;2022-10-14T06:49:45;101405.59;;;11.68;100.00
23241;BME280;11789;53.482;9.862;2022-10-14T06:52:11;101403.03;;;11.73;100.00
23241;BME280;11789;53.482;9.862;2022-10-14T06:54:36;101407.38;;;11.77;100.00
23241;BME280;11789;53.482;9.862;2022-10-14T06:57:05;101404.84;;;11.82;100.00
23241;BME280;11789;53.482;9.862;2022-10-14T06:59:30;101406.53;;;11.86;100.00
23241;BME280;11789;53.482;9.862;2022-10-14T07:01:56;101403.09;;;11.90;100.00
23241;BME280;11789;53.482;9.862;2022-10-14T07:04:21;101410.91;;;11.93;100.00
23241;BME280;11789;53.482;9.862;2022-10-14T07:06:47;101408.28;;;11.96;100.00
23241;BME280;11789;53.482;9.862;2022-10-14T07:09:15;101401.41;;;12.00;100.00
23241;BME280;11789;53.482;9.862;2022-10-14T07:11:41;101404.88;;;12.03;100.00
23241;BME280;11789;53.482;9.862;2022-10-14T07:14:09;101404.00;;;12.06;100.00
23241;BME280;11789;53.482;9.862;2022-10-14T07:16:34;101405.75;;;12.08;100.00
23241;BME280;11789;53.482;9.862;2022-10-14T07:19:00;101395.38;;;12.11;100.00
23241;BME280;11789;53.482;9.862;2022-10-14T07:21:25;101403.16;;;12.14;100.00
23241;BME280;11789;53.482;9.862;2022-10-14T07:23:51;101404.03;;;12.15;100.00
23241;BME280;11789;53.482;9.862;2022-10-14T07:26:16;101401.44;;;12.19;100.00
23241;BME280;11789;53.482;9.862;2022-10-14T07:28:42;101404.03;;;12.24;100.00
23241;BME280;11789;53.482;9.862;2022-10-14T07:31:09;101405.78;;;12.27;100.00
23241;BME280;11789;53.482;9.862;2022-10-14T07:33:36;101411.81;;;12.30;100.00
23241;BME280;11789;53.482;9.862;2022-10-14T07:36:04;101417.00;;;12.36;100.00
23241;BME280;11789;53.482;9.862;2022-10-14T07:38:30;101416.16;;;12.42;100.00
23241;BME280;11789;53.482;9.862;2022-10-14T07:41:01;101419.63;;;12.49;100.00
23241;BME280;11789;53.482;9.862;2022-10-14T07:43:28;101411.81;;;12.55;100.00
23241;BME280;11789;53.482;9.862;2022-10-14T07:45:54;101415.28;;;12.57;100.00
23241;BME280;11789;53.482;9.862;2022-10-14T07:48:27;101412.69;;;12.58;100.00
23241;BME280;11789;53.482;9.862;2022-10-14T07:50:53;101413.56;;;12.60;100.00
23241;BME280;11789;53.482;9.862;2022-10-14T07:53:19;101417.00;;;12.61;100.00
23241;BME280;11789;53.482;9.862;2022-10-14T07:55:44;101423.06;;;12.64;100.00
23241;BME280;11789;53.482;9.862;2022-10-14T07:58:26;101426.53;;;12.68;100.00
23241;BME280;11789;53.482;9.862;2022-10-14T08:00:53;101421.31;;;12.71;100.00
23241;BME280;11789;53.482;9.862;2022-10-14T08:03:20;101422.22;;;12.73;100.00
23241;BME280;11789;53.482;9.862;2022-10-14T08:05:47;101420.47;;;12.70;100.00
23241;BME280;11789;53.482;9.862;2022-10-14T08:08:15;101427.38;;;12.67;100.00
23241;BME280;11789;53.482;9.862;2022-10-14T08:10:41;101431.72;;;12.63;100.00
23241;BME280;11789;53.482;9.862;2022-10-14T08:13:07;101436.06;;;12.58;100.00
23241;BME280;11789;53.482;9.862;2022-10-14T08:15:37;101430.00;;;12.55;100.00
23241;BME280;11789;53.482;9.862;2022-10-14T08:18:09;101433.47;;;12.52;100.00
23241;BME280;11789;53.482;9.862;2022-10-14T08:20:38;101430.00;;;12.47;100.00
23241;BME280;11789;53.482;9.862;2022-10-14T08:23:03;101436.03;;;12.43;100.00
23241;BME280;11789;53.482;9.862;2022-10-14T08:25:29;101428.25;;;12.38;100.00
23241;BME280;11789;53.482;9.862;2022-10-14T08:27:54;101419.63;;;12.38;100.00
23241;BME280;11789;53.482;9.862;2022-10-14T08:30:23;101422.19;;;12.39;100.00
23241;BME280;11789;53.482;9.862;2022-10-14T08:32:49;101426.50;;;12.40;100.00
23241;BME280;11789;53.482;9.862;2022-10-14T08:35:14;101408.34;;;12.46;100.00
23241;BME280;11789;53.482;9.862;2022-10-14T08:37:40;101417.91;;;12.63;100.00
23241;BME280;11789;53.482;9.862;2022-10-14T08:40:06;101413.53;;;12.76;100.00
23241;BME280;11789;53.482;9.862;2022-10-14T08:45:24;101414.34;;;13.30;100.00
23241;BME280;11789;53.482;9.862;2022-10-14T08:47:52;101399.59;;;13.32;100.00
23241;BME280;11789;53.482;9.862;2022-10-14T08:50:29;101400.47;;;13.28;100.00
23241;BME280;11789;53.482;9.862;2022-10-14T08:53:04;101405.72;;;13.14;100.00
23241;BME280;11789;53.482;9.862;2022-10-14T08:55:45;101402.28;;;12.99;100.00
23241;BME280;11789;53.482;9.862;2022-10-14T08:58:19;101392.78;;;12.89;100.00
23241;BME280;11789;53.482;9.862;2022-10-14T09:00:50;101402.31;;;12.83;100.00
23241;BME280;11789;53.482;9.862;2022-10-14T09:03:20;101398.84;;;12.81;100.00
23241;BME280;11789;53.482;9.862;2022-10-14T09:05:55;101400.56;;;12.82;100.00
23241;BME280;11789;53.482;9.862;2022-10-14T09:08:27;101398.84;;;12.81;100.00
23241;BME280;11789;53.482;9.862;2022-10-14T09:10:55;101400.56;;;12.82;100.00
23241;BME280;11789;53.482;9.862;2022-10-14T09:13:30;101396.25;;;12.79;100.00
23241;BME280;11789;53.482;9.862;2022-10-14T09:16:15;101402.28;;;12.77;100.00
23241;BME280;11789;53.482;9.862;2022-10-14T09:18:49;101389.34;;;12.75;100.00
23241;BME280;11789;53.482;9.862;2022-10-14T09:21:23;101389.34;;;12.73;100.00
23241;BME280;11789;53.482;9.862;2022-10-14T09:23:56;101388.44;;;12.82;100.00
23241;BME280;11789;53.482;9.862;2022-10-14T09:26:29;101378.94;;;12.98;100.00
23241;BME280;11789;53.482;9.862;2022-10-14T09:29:00;101377.16;;;13.02;100.00
23241;BME280;11789;53.482;9.862;2022-10-14T09:31:26;101384.09;;;13.09;100.00
23241;BME280;11789;53.482;9.862;2022-10-14T09:33:51;101384.09;;;13.09;100.00
23241;BME280;11789;53.482;9.862;2022-10-14T09:36:19;101378.88;;;13.07;100.00
23241;BME280;11789;53.482;9.862;2022-10-14T09:38:49;101384.09;;;13.06;100.00
23241;BME280;11789;53.482;9.862;2022-10-14T09:41:22;101381.50;;;13.09;100.00
23241;BME280;11789;53.482;9.862;2022-10-14T09:44:18;101384.06;;;13.07;100.00
23241;BME280;11789;53.482;9.862;2022-10-14T09:47:04;101383.22;;;13.07;100.00
23241;BME280;11789;53.482;9.862;2022-10-14T09:49:39;101384.97;;;13.00;100.00
23241;BME280;11789;53.482;9.862;2022-10-14T09:52:07;101384.97;;;12.92;100.00
23241;BME280;11789;53.482;9.862;2022-10-14T09:54:44;101388.44;;;12.87;100.00
23241;BME280;11789;53.482;9.862;2022-10-14T09:57:18;101389.31;;;12.80;100.00
23241;BME280;11789;53.482;9.862;2022-10-14T09:59:51;101385.87;;;12.78;100.00
23241;BME280;11789;53.482;9.862;2022-10-14T10:02:25;101386.72;;;12.77;100.00
23241;BME280;11789;53.482;9.862;2022-10-14T10:05:10;101388.47;;;12.76;100.00
23241;BME280;11789;53.482;9.862;2022-10-14T10:07:36;101367.72;;;12.75;100.00
23241;BME280;11789;53.482;9.862;2022-10-14T10:10:16;101374.66;;;12.72;100.00
23241;BME280;11789;53.482;9.862;2022-10-14T10:12:42;101377.25;;;12.69;100.00
23241;BME280;11789;53.482;9.862;2022-10-14T10:15:18;101367.72;;;12.68;100.00
23241;BME280;11789;53.482;9.862;2022-10-14T10:17:46;101362.53;;;12.71;100.00
23241;BME280;11789;53.482;9.862;2022-10-14T10:20:29;101372.03;;;12.74;100.00
23241;BME280;11789;53.482;9.862;2022-10-14T10:23:22;101368.56;;;12.77;100.00
23241;BME280;11789;53.482;9.862;2022-10-14T10:25:51;101360.78;;;12.77;100.00
23241;BME280;11789;53.482;9.862;2022-10-14T10:28:20;101356.47;;;12.74;100.00
23241;BME280;11789;53.482;9.862;2022-10-14T10:31:20;101360.81;;;12.73;100.00
23241;BME280;11789;53.482;9.862;2022-10-14T10:36:30;101365.13;;;12.71;100.00
23241;BME280;11789;53.482;9.862;2022-10-14T10:44:47;101353.88;;;12.79;100.00
23241;BME280;11789;53.482;9.862;2022-10-14T10:47:31;101359.91;;;12.82;100.00
23241;BME280;11789;53.482;9.862;2022-10-14T10:58:56;101358.19;;;12.81;100.00
23241;BME280;11789;53.482;9.862;2022-10-14T11:04:45;101357.34;;;12.78;100.00
23241;BME280;11789;53.482;9.862;2022-10-14T11:07:29;101353.84;;;12.77;100.00
23241;BME280;11789;53.482;9.862;2022-10-14T11:10:25;101342.63;;;12.77;100.00
23241;BME280;11789;53.482;9.862;2022-10-14T11:13:37;101338.31;;;12.74;100.00
23241;BME280;11789;53.482;9.862;2022-10-14T11:16:14;101342.63;;;12.78;100.00
23241;BME280;11789;53.482;9.862;2022-10-14T11:26:50;101332.22;;;12.87;100.00
23241;BME280;11789;53.482;9.862;2022-10-14T11:32:15;101318.31;;;13.02;100.00
23241;BME280;11789;53.482;9.862;2022-10-14T11:40:44;101321.75;;;13.18;100.00
23241;BME280;11789;53.482;9.862;2022-10-14T11:43:21;101314.84;;;13.11;99.58
23241;BME280;11789;53.482;9.862;2022-10-14T11:46:11;101313.97;;;13.07;99.22
23241;BME280;11789;53.482;9.862;2022-10-14T11:48:40;101310.53;;;13.05;99.20
23241;BME280;11789;53.482;9.862;2022-10-14T11:51:48;101313.16;;;13.04;99.70
23241;BME280;11789;53.482;9.862;2022-10-14T11:54:35;101316.59;;;13.01;100.00
23241;BME280;11789;53.482;9.862;2022-10-14T11:57:11;101316.62;;;12.99;100.00
23241;BME280;11789;53.482;9.862;2022-10-14T11:59:46;101313.16;;;12.97;100.00
23241;BME280;11789;53.482;9.862;2022-10-14T12:08:19;101314.91;;;12.98;95.87
23241;BME280;11789;53.482;9.862;2022-10-14T12:11:06;101307.97;;;12.96;94.97
23241;BME280;11789;53.482;9.862;2022-10-14T12:13:43;101296.72;;;12.97;95.35
23241;BME280;11789;53.482;9.862;2022-10-14T12:16:15;101299.28;;;13.02;93.94
23241;BME280;11789;53.482;9.862;2022-10-14T12:18:46;101305.38;;;13.04;94.23
23241;BME280;11789;53.482;9.862;2022-10-14T12:21:46;101307.09;;;13.02;94.55
23241;BME280;11789;53.482;9.862;2022-10-14T12:24:18;101300.19;;;12.99;94.26
23241;BME280;11789;53.482;9.862;2022-10-14T12:26:47;101300.19;;;12.96;94.12
23241;BME280;11789;53.482;9.862;2022-10-14T12:29:17;101291.53;;;12.97;93.49
23241;BME280;11789;53.482;9.862;2022-10-14T12:32:36;101290.66;;;12.99;93.48
23241;BME280;11789;53.482;9.862;2022-10-14T12:34:39;101276.84;;;12.99;94.02
23241;BME280;11789;53.482;9.862;2022-10-14T12:45:17;101265.53;;;13.06;94.65
23241;BME280;11789;53.482;9.862;2022-10-14T12:48:01;101264.66;;;13.13;94.39
23241;BME280;11789;53.482;9.862;2022-10-14T12:50:38;101267.25;;;13.18;94.32
23241;BME280;11789;53.482;9.862;2022-10-14T12:55:51;101253.38;;;13.22;94.54
23241;BME280;11789;53.482;9.862;2022-10-14T12:58:23;101261.16;;;13.20;94.63
23241;BME280;11789;53.482;9.862;2022-10-14T13:00:59;101258.56;;;13.16;95.10
23241;BME280;11789;53.482;9.862;2022-10-14T13:03:30;101258.59;;;13.11;95.91
23241;BME280;11789;53.482;9.862;2022-10-14T13:06:35;101258.62;;;13.10;95.97
23241;BME280;11789;53.482;9.862;2022-10-14T13:11:37;101261.25;;;13.04;96.87
23241;BME280;11789;53.482;9.862;2022-10-14T13:14:24;101262.09;;;13.01;97.38
23241;BME280;11789;53.482;9.862;2022-10-14T13:19:38;101245.69;;;12.99;97.90
23241;BME280;11789;53.482;9.862;2022-10-14T13:25:00;101233.56;;;13.01;98.52
23241;BME280;11789;53.482;9.862;2022-10-14T13:27:41;101226.63;;;13.03;98.68
23241;BME280;11789;53.482;9.862;2022-10-14T13:30:30;101222.28;;;13.05;98.90
23241;BME280;11789;53.482;9.862;2022-10-14T13:33:16;101214.50;;;13.07;98.92
23241;BME280;11789;53.482;9.862;2022-10-14T13:38:18;101204.09;;;13.13;98.71
23241;BME280;11789;53.482;9.862;2022-10-14T13:40:49;101204.94;;;13.15;98.73
23241;BME280;11789;53.482;9.862;2022-10-14T13:43:23;101204.03;;;13.17;98.60
23241;BME280;11789;53.482;9.862;2022-10-14T13:46:15;101203.19;;;13.20;97.69
23241;BME280;11789;53.482;9.862;2022-10-14T13:48:50;101190.19;;;13.26;97.24
23241;BME280;11789;53.482;9.862;2022-10-14T13:51:22;101187.56;;;13.31;97.14
23241;BME280;11789;53.482;9.862;2022-10-14T13:54:13;101190.97;;;13.36;96.75
23241;BME280;11789;53.482;9.862;2022-10-14T13:56:39;101180.59;;;13.39;96.32
23241;BME280;11789;53.482;9.862;2022-10-14T13:59:19;101179.69;;;13.41;95.44
23241;BME280;11789;53.482;9.862;2022-10-14T14:01:47;101177.03;;;13.47;95.20
23241;BME280;11789;53.482;9.862;2022-10-14T14:04:21;101177.88;;;13.51;95.11
23241;BME280;11789;53.482;9.862;2022-10-14T14:06:48;101170.06;;;13.54;95.27
23241;BME280;11789;53.482;9.862;2022-10-14T14:09:29;101164.00;;;13.55;94.72
23241;BME280;11789;53.482;9.862;2022-10-14T14:11:58;101159.66;;;13.59;94.76
23241;BME280;11789;53.482;9.862;2022-10-14T14:14:40;101157.91;;;13.59;94.78
23241;BME280;11789;53.482;9.862;2022-10-14T14:17:16;101153.56;;;13.60;94.87
23241;BME280;11789;53.482;9.862;2022-10-14T14:19:44;101150.94;;;13.61;94.78
23241;BME280;11789;53.482;9.862;2022-10-14T14:24:48;101130.19;;;13.60;94.82